createdAt,value
2022-09-20T00:00:21.916Z,11.25
2022-09-20T00:02:54.911Z,11.25
2022-09-20T00:05:28.789Z,11.26
2022-09-20T00:07:59.076Z,11.19
2022-09-20T00:10:28.290Z,11.33
2022-09-20T00:12:57.572Z,11.32
2022-09-20T00:15:27.720Z,11.26
2022-09-20T00:17:55.880Z,11.28
2022-09-20T00:20:24.814Z,11.30
2022-09-20T00:22:53.990Z,11.30
2022-09-20T00:25:22.675Z,11.29
2022-09-20T00:27:51.446Z,11.23
2022-09-20T00:30:24.592Z,11.34
2022-09-20T00:32:57.795Z,11.36
2022-09-20T00:38:19.236Z,11.42
2022-09-20T00:40:48.143Z,11.42
2022-09-20T00:43:18.137Z,11.41
2022-09-20T00:45:52.033Z,11.43
2022-09-20T00:48:29.928Z,11.43
2022-09-20T00:51:01.665Z,11.42
2022-09-20T00:53:32.833Z,11.36
2022-09-20T00:56:11.185Z,11.48
2022-09-20T00:58:43.345Z,11.35
2022-09-20T01:01:37.271Z,11.29
2022-09-20T01:04:09.883Z,11.34
2022-09-20T01:06:38.112Z,11.36
2022-09-20T01:09:08.344Z,11.37
2022-09-20T01:11:38.455Z,11.30
2022-09-20T01:14:06.714Z,11.26
2022-09-20T01:16:36.087Z,11.29
2022-09-20T01:19:07.657Z,11.27
2022-09-20T01:21:43.863Z,11.28
2022-09-20T01:27:14.594Z,11.37
2022-09-20T01:29:54.725Z,11.35
2022-09-20T01:32:36.859Z,11.31
2022-09-20T01:35:06.016Z,11.36
2022-09-20T01:37:38.907Z,11.34
2022-09-20T01:40:12.060Z,11.32
2022-09-20T01:42:44.989Z,11.30
2022-09-20T01:45:21.372Z,11.29
2022-09-20T01:47:53.316Z,11.31
2022-09-20T01:50:27.122Z,11.29
2022-09-20T01:53:05.751Z,11.26
2022-09-20T01:56:03.698Z,11.20
2022-09-20T01:59:19.807Z,11.32
2022-09-20T02:02:01.746Z,11.29
2022-09-20T02:04:44.565Z,11.35
2022-09-20T02:07:21.632Z,11.24
2022-09-20T02:10:13.653Z,11.26
2022-09-20T02:12:50.501Z,11.31
2022-09-20T02:15:29.914Z,11.38
2022-09-20T02:18:05.018Z,11.42
2022-09-20T02:20:42.468Z,11.48
2022-09-20T02:23:22.683Z,11.50
2022-09-20T02:26:02.542Z,11.53
2022-09-20T02:28:36.190Z,11.50
2022-09-20T02:31:09.636Z,11.52
2022-09-20T02:33:49.113Z,11.55
2022-09-20T02:36:32.223Z,11.53
2022-09-20T02:39:09.232Z,11.57
2022-09-20T02:41:43.702Z,11.53
2022-09-20T02:44:18.938Z,11.45
2022-09-20T02:46:50.908Z,11.43
2022-09-20T02:49:23.793Z,11.49
2022-09-20T02:51:53.966Z,11.44
2022-09-20T02:54:31.357Z,11.56
2022-09-20T02:57:03.747Z,11.55
2022-09-20T02:59:37.189Z,11.56
2022-09-20T03:02:10.031Z,11.57
2022-09-20T03:04:47.231Z,11.55
2022-09-20T03:07:22.322Z,11.50
2022-09-20T03:09:56.319Z,11.54
2022-09-20T03:12:32.024Z,11.50
2022-09-20T03:15:07.758Z,11.54
2022-09-20T03:17:42.629Z,11.57
2022-09-20T03:20:19.173Z,11.56
2022-09-20T03:22:55.056Z,11.59
2022-09-20T03:25:37.820Z,11.57
2022-09-20T03:28:12.299Z,11.64
2022-09-20T03:30:47.944Z,11.64
2022-09-20T03:33:22.287Z,11.59
2022-09-20T03:36:05.135Z,11.67
2022-09-20T03:38:40.244Z,11.71
2022-09-20T03:41:23.354Z,11.71
2022-09-20T03:44:00.967Z,11.76
2022-09-20T03:46:30.528Z,11.76
2022-09-20T03:49:12.370Z,11.82
2022-09-20T03:51:45.925Z,11.85
2022-09-20T03:54:26.538Z,11.92
2022-09-20T03:57:16.072Z,11.87
2022-09-20T04:00:03.215Z,11.93
2022-09-20T04:02:40.369Z,11.88
2022-09-20T04:05:10.999Z,11.92
2022-09-20T04:07:45.178Z,11.87
2022-09-20T04:10:20.408Z,11.90
2022-09-20T04:12:54.486Z,12.01
2022-09-20T04:15:31.451Z,11.99
2022-09-20T04:18:02.683Z,12.04
2022-09-20T04:20:35.371Z,12.02
2022-09-20T04:23:06.823Z,11.93
2022-09-20T04:25:43.624Z,11.90
2022-09-20T04:28:15.455Z,11.97
2022-09-20T04:30:46.351Z,12.04
2022-09-20T04:33:16.905Z,12.05
2022-09-20T04:36:03.986Z,12.00
2022-09-20T04:38:32.742Z,11.94
2022-09-20T04:41:09.947Z,12.00
2022-09-20T04:43:55.697Z,11.90
2022-09-20T04:46:38.884Z,11.83
2022-09-20T04:49:34.167Z,11.84
2022-09-20T04:52:32.644Z,11.80
2022-09-20T04:55:18.743Z,11.79
2022-09-20T04:58:01.865Z,11.78
2022-09-20T05:00:40.094Z,11.80
2022-09-20T05:03:32.236Z,11.87
2022-09-20T05:06:17.179Z,11.93
2022-09-20T05:09:00.700Z,11.98
2022-09-20T05:11:47.436Z,12.04
2022-09-20T05:17:14.973Z,12.45
2022-09-20T05:19:52.745Z,12.68
2022-09-20T05:22:38.520Z,12.82
2022-09-20T05:25:23.680Z,13.06
2022-09-20T05:27:54.385Z,13.30
2022-09-20T05:30:26.776Z,13.45
2022-09-20T05:33:06.185Z,13.62
2022-09-20T05:41:08.782Z,13.71
2022-09-20T05:43:39.935Z,13.72
2022-09-20T05:46:16.802Z,13.66
2022-09-20T05:51:58.340Z,13.65
2022-09-20T05:54:32.578Z,13.71
2022-09-20T05:57:08.790Z,13.74
2022-09-20T05:59:43.183Z,13.67
2022-09-20T06:02:23.942Z,13.51
2022-09-20T06:04:57.927Z,13.48
2022-09-20T06:07:33.827Z,13.46
2022-09-20T06:10:16.549Z,13.24
2022-09-20T06:12:53.740Z,13.35
2022-09-20T06:15:35.344Z,13.20
2022-09-20T06:18:08.456Z,13.34
2022-09-20T06:20:39.203Z,13.58
2022-09-20T06:23:11.475Z,13.72
2022-09-20T06:25:43.611Z,13.84
2022-09-20T06:28:18.639Z,14.08
2022-09-20T06:30:49.274Z,14.38
2022-09-20T06:33:19.344Z,14.62
2022-09-20T06:35:56.887Z,14.71
2022-09-20T06:39:07.551Z,14.89
2022-09-20T06:41:38.536Z,14.97
2022-09-20T06:44:07.541Z,14.99
2022-09-20T06:46:36.911Z,14.91
2022-09-20T06:49:08.464Z,15.05
2022-09-20T06:51:38.160Z,15.16
2022-09-20T06:54:11.527Z,15.24
2022-09-20T06:56:39.796Z,15.25
2022-09-20T06:59:08.751Z,15.19
2022-09-20T07:01:37.226Z,15.26
2022-09-20T07:04:06.296Z,15.15
2022-09-20T07:06:34.609Z,15.34
2022-09-20T07:09:03.124Z,15.58
2022-09-20T07:11:34.457Z,15.58
2022-09-20T07:14:05.469Z,15.80
2022-09-20T07:16:33.699Z,15.92
2022-09-20T07:19:02.011Z,15.63
2022-09-20T07:21:30.251Z,15.73
2022-09-20T07:23:58.518Z,15.84
2022-09-20T07:27:00.642Z,16.03
2022-09-20T07:29:29.594Z,15.73
2022-09-20T07:31:58.931Z,15.65
2022-09-20T07:34:27.379Z,15.71
2022-09-20T07:36:57.538Z,15.67
2022-09-20T07:39:26.387Z,15.78
2022-09-20T07:41:54.318Z,15.96
2022-09-20T07:44:38.060Z,16.19
2022-09-20T07:57:16.976Z,17.08
2022-09-20T07:59:49.951Z,17.03
2022-09-20T08:02:18.380Z,17.18
2022-09-20T08:04:49.996Z,17.17
2022-09-20T08:07:18.790Z,16.84
2022-09-20T08:09:46.840Z,16.52
2022-09-20T08:15:08.543Z,16.16
2022-09-20T08:17:40.365Z,16.22
2022-09-20T08:20:09.773Z,16.51
2022-09-20T08:22:39.470Z,16.53
2022-09-20T08:25:08.572Z,16.96
2022-09-20T08:27:37.466Z,16.37
2022-09-20T08:30:07.980Z,16.27
2022-09-20T08:32:36.274Z,16.31
2022-09-20T08:35:04.701Z,16.84
2022-09-20T08:37:33.067Z,17.00
2022-09-20T08:40:01.325Z,16.97
2022-09-20T08:42:34.910Z,16.81
2022-09-20T08:45:09.590Z,16.61
2022-09-20T08:47:39.603Z,16.62
2022-09-20T08:50:11.038Z,16.69
2022-09-20T08:52:40.931Z,16.53
2022-09-20T08:55:17.047Z,16.28
2022-09-20T08:57:46.654Z,16.26
2022-09-20T09:00:19.390Z,16.13
2022-09-20T09:02:47.716Z,16.19
2022-09-20T09:05:31.822Z,15.96
2022-09-20T09:08:00.889Z,16.27
2022-09-20T09:10:32.372Z,16.41
2022-09-20T09:13:00.839Z,16.79
2022-09-20T09:15:32.884Z,17.00
2022-09-20T09:18:01.511Z,17.15
2022-09-20T09:20:29.882Z,16.88
2022-09-20T09:23:02.972Z,16.71
2022-09-20T09:25:34.510Z,16.72
2022-09-20T09:28:03.766Z,16.72
2022-09-20T09:30:33.941Z,17.06
2022-09-20T09:33:20.181Z,17.27
2022-09-20T09:35:54.423Z,17.60
2022-09-20T09:38:24.726Z,17.97
2022-09-20T09:40:54.377Z,17.88
2022-09-20T09:43:27.252Z,18.11
2022-09-20T09:45:57.351Z,18.24
2022-09-20T09:48:27.122Z,18.47
2022-09-20T09:51:13.171Z,18.78
2022-09-20T09:53:41.514Z,19.22
2022-09-20T09:56:18.270Z,19.44
2022-09-20T09:58:58.572Z,19.36
2022-09-20T10:01:34.300Z,18.92
2022-09-20T10:04:06.992Z,18.71
2022-09-20T10:06:40.020Z,18.66
2022-09-20T10:09:18.064Z,18.58
2022-09-20T10:12:02.297Z,18.40
2022-09-20T10:14:43.379Z,18.48
2022-09-20T10:17:20.006Z,18.34
2022-09-20T10:19:57.787Z,18.76
2022-09-20T10:22:31.394Z,18.44
2022-09-20T10:25:04.902Z,18.17
2022-09-20T10:27:41.635Z,17.75
2022-09-20T10:30:11.893Z,17.51
2022-09-20T10:32:53.049Z,17.42
2022-09-20T10:35:26.802Z,17.41
2022-09-20T10:38:03.837Z,17.62
2022-09-20T10:40:50.308Z,17.72
2022-09-20T10:43:25.988Z,17.90
2022-09-20T10:46:21.069Z,17.93
2022-09-20T10:48:53.172Z,17.72
2022-09-20T10:51:26.101Z,17.76
2022-09-20T10:54:00.158Z,17.75
2022-09-20T10:56:29.941Z,17.35
2022-09-20T10:59:11.308Z,17.60
2022-09-20T11:01:44.446Z,19.44
2022-09-20T11:04:23.484Z,21.52
2022-09-20T11:06:55.815Z,22.71
2022-09-20T11:09:26.360Z,22.70
2022-09-20T11:11:59.936Z,22.62
2022-09-20T11:14:33.559Z,23.45
2022-09-20T11:17:05.083Z,22.96
2022-09-20T11:19:38.591Z,22.22
2022-09-20T11:22:10.306Z,21.23
2022-09-20T11:24:39.552Z,20.48
2022-09-20T11:27:12.103Z,19.75
2022-09-20T11:29:42.565Z,19.27
2022-09-20T11:32:14.061Z,19.02
2022-09-20T11:34:48.464Z,19.45
2022-09-20T11:37:18.381Z,20.86
2022-09-20T11:39:50.114Z,21.38
2022-09-20T11:42:20.527Z,22.07
2022-09-20T11:44:49.398Z,23.13
2022-09-20T11:47:42.767Z,24.00
2022-09-20T11:50:33.349Z,24.66
2022-09-20T11:53:08.173Z,25.20
2022-09-20T11:55:42.897Z,25.47
2022-09-20T11:58:12.869Z,24.74
2022-09-20T12:00:42.816Z,24.80
2022-09-20T12:03:22.683Z,25.79
2022-09-20T12:05:58.390Z,25.01
2022-09-20T12:08:28.162Z,23.77
2022-09-20T12:10:59.107Z,22.67
2022-09-20T12:13:28.211Z,22.37
2022-09-20T12:16:00.980Z,21.75
2022-09-20T12:18:33.225Z,20.65
2022-09-20T12:21:04.508Z,20.42
2022-09-20T12:23:51.126Z,20.17
2022-09-20T12:26:34.011Z,20.06
2022-09-20T12:29:03.158Z,19.65
2022-09-20T12:31:41.943Z,20.85
2022-09-20T12:34:24.748Z,21.74
2022-09-20T12:37:08.058Z,21.49
2022-09-20T12:39:38.995Z,21.19
2022-09-20T12:42:24.666Z,21.04
2022-09-20T12:44:59.099Z,21.80
2022-09-20T12:47:29.195Z,22.16
2022-09-20T12:50:16.198Z,21.87
2022-09-20T12:52:54.090Z,21.29
2022-09-20T12:55:47.162Z,21.49
2022-09-20T12:58:25.537Z,21.40
2022-09-20T13:01:11.978Z,21.87
2022-09-20T13:03:43.741Z,21.84
2022-09-20T13:06:26.660Z,20.97
2022-09-20T13:09:04.431Z,20.27
2022-09-20T13:11:36.213Z,20.14
2022-09-20T13:14:08.544Z,20.07
2022-09-20T13:16:42.634Z,20.76
2022-09-20T13:19:16.671Z,21.23
2022-09-20T13:21:49.769Z,21.55
2022-09-20T13:24:20.178Z,22.97
2022-09-20T13:26:49.411Z,23.34
2022-09-20T13:29:24.661Z,22.69
2022-09-20T13:31:52.851Z,21.47
2022-09-20T13:34:22.839Z,20.69
2022-09-20T13:36:55.996Z,21.84
2022-09-20T13:39:26.750Z,23.65
2022-09-20T13:41:55.000Z,24.21
2022-09-20T13:44:25.780Z,24.71
2022-09-20T13:46:53.870Z,26.05
2022-09-20T13:49:24.014Z,27.51
2022-09-20T13:51:52.965Z,27.65
2022-09-20T13:54:25.888Z,26.51
2022-09-20T13:56:55.020Z,26.62
2022-09-20T13:59:24.932Z,25.72
2022-09-20T14:01:54.865Z,25.71
2022-09-20T14:04:24.607Z,26.24
2022-09-20T14:06:54.408Z,26.76
2022-09-20T14:09:26.787Z,26.64
2022-09-20T14:11:56.352Z,24.68
2022-09-20T14:14:26.699Z,22.18
2022-09-20T14:16:55.644Z,20.64
2022-09-20T14:19:27.040Z,19.83
2022-09-20T14:21:55.335Z,19.06
2022-09-20T14:24:29.081Z,18.63
2022-09-20T14:27:07.900Z,18.15
2022-09-20T14:29:41.309Z,17.51
2022-09-20T14:32:13.415Z,17.45
2022-09-20T14:34:42.709Z,17.40
2022-09-20T14:37:13.558Z,17.14
2022-09-20T14:39:48.687Z,17.01
2022-09-20T14:42:21.870Z,16.71
2022-09-20T14:44:53.470Z,16.46
2022-09-20T14:47:29.095Z,16.34
2022-09-20T14:49:58.306Z,16.06
2022-09-20T14:52:41.009Z,15.97
2022-09-20T14:55:29.677Z,15.80
2022-09-20T14:58:01.842Z,15.71
2022-09-20T15:00:31.467Z,15.62
2022-09-20T15:03:06.004Z,15.46
2022-09-20T15:05:34.103Z,15.42
2022-09-20T15:08:02.513Z,15.36
2022-09-20T15:10:30.934Z,15.35
2022-09-20T15:12:59.205Z,15.28
2022-09-20T15:15:27.383Z,15.21
2022-09-20T15:17:56.975Z,15.06
2022-09-20T15:20:25.648Z,14.97
2022-09-20T15:22:53.759Z,14.96
2022-09-20T15:25:22.137Z,14.91
2022-09-20T15:27:51.056Z,14.86
2022-09-20T15:30:21.220Z,14.84
2022-09-20T15:32:49.509Z,14.76
2022-09-20T15:35:19.509Z,14.69
2022-09-20T15:37:47.853Z,14.43
2022-09-20T15:40:15.951Z,14.19
2022-09-20T15:42:44.154Z,13.93
2022-09-20T15:45:12.743Z,13.77
2022-09-20T15:47:41.245Z,13.62
2022-09-20T15:50:11.084Z,13.46
2022-09-20T15:52:41.756Z,13.26
2022-09-20T15:55:10.360Z,13.17
2022-09-20T15:57:39.707Z,13.07
2022-09-20T16:00:08.951Z,12.96
2022-09-20T16:02:37.308Z,12.91
2022-09-20T16:05:06.317Z,12.86
2022-09-20T16:07:34.761Z,12.75
2022-09-20T16:10:04.694Z,12.73
2022-09-20T16:12:32.838Z,12.69
2022-09-20T16:15:00.802Z,12.63
2022-09-20T16:17:42.545Z,12.53
2022-09-20T16:20:11.085Z,12.46
2022-09-20T16:22:39.174Z,12.41
2022-09-20T16:25:09.657Z,12.30
2022-09-20T16:27:38.938Z,12.26
2022-09-20T16:30:07.540Z,12.24
2022-09-20T16:32:35.889Z,12.20
2022-09-20T16:35:07.271Z,12.19
2022-09-20T16:37:36.957Z,12.14
2022-09-20T16:40:05.438Z,12.08
2022-09-20T16:42:34.927Z,12.04
2022-09-20T16:45:03.487Z,12.06
2022-09-20T16:47:31.751Z,12.01
2022-09-20T16:49:59.992Z,12.03
2022-09-20T16:52:28.279Z,11.99
2022-09-20T16:54:56.247Z,11.97
2022-09-20T16:57:24.303Z,11.92
2022-09-20T16:59:55.959Z,11.89
2022-09-20T17:02:24.061Z,11.85
2022-09-20T17:04:52.528Z,11.85
2022-09-20T17:07:24.656Z,11.81
2022-09-20T17:10:00.755Z,11.80
2022-09-20T17:12:32.913Z,11.73
2022-09-20T17:15:02.863Z,11.68
2022-09-20T17:17:32.171Z,11.62
2022-09-20T17:20:00.943Z,11.58
2022-09-20T17:22:32.695Z,11.50
2022-09-20T17:25:00.754Z,11.53
2022-09-20T17:27:29.240Z,11.48
2022-09-20T17:29:57.628Z,11.43
2022-09-20T17:32:27.092Z,11.40
2022-09-20T17:34:56.078Z,11.35
2022-09-20T17:37:24.287Z,11.30
2022-09-20T17:39:52.283Z,11.29
2022-09-20T17:42:20.937Z,11.25
2022-09-20T17:44:53.513Z,11.19
2022-09-20T17:47:28.466Z,11.14
2022-09-20T17:50:03.256Z,11.09
2022-09-20T17:52:41.490Z,11.07
2022-09-20T17:55:11.981Z,11.02
2022-09-20T17:57:53.177Z,10.99
2022-09-20T18:00:31.239Z,10.92
2022-09-20T18:03:21.588Z,10.89
2022-09-20T18:09:29.218Z,10.72
2022-09-20T18:18:32.930Z,10.71
2022-09-20T18:21:07.220Z,10.70
2022-09-20T18:23:42.076Z,10.73
2022-09-20T18:26:30.380Z,10.72
2022-09-20T18:29:22.461Z,10.68
2022-09-20T18:32:13.826Z,10.64
2022-09-20T18:34:59.760Z,10.62
2022-09-20T18:37:44.876Z,10.60
2022-09-20T18:40:17.943Z,10.61
2022-09-20T18:49:35.482Z,10.57
2022-09-20T18:57:14.524Z,10.58
2022-09-20T19:00:03.442Z,10.59
2022-09-20T19:03:00.441Z,10.61
2022-09-20T19:17:42.455Z,10.47
2022-09-20T19:30:26.397Z,10.55
2022-09-20T19:33:03.000Z,10.51
2022-09-20T19:35:50.519Z,10.48
2022-09-20T19:38:30.118Z,10.43
2022-09-20T19:41:15.854Z,10.43
2022-09-20T19:44:07.132Z,10.41
2022-09-20T19:52:26.759Z,10.31
2022-09-20T19:57:57.212Z,10.26
2022-09-20T20:03:35.539Z,10.30
2022-09-20T20:06:08.610Z,10.35
2022-09-20T20:08:44.384Z,10.32
2022-09-20T20:14:04.650Z,10.31
2022-09-20T20:16:35.196Z,10.26
2022-09-20T20:19:09.584Z,10.27
2022-09-20T20:21:43.095Z,10.31
2022-09-20T20:24:20.737Z,10.36
2022-09-20T20:26:48.874Z,10.31
2022-09-20T20:29:17.024Z,10.28
2022-09-20T20:31:45.138Z,10.27
2022-09-20T20:34:16.365Z,10.22
2022-09-20T20:36:45.819Z,10.20
2022-09-20T20:39:16.198Z,10.20
2022-09-20T20:41:44.509Z,10.18
2022-09-20T20:44:12.666Z,10.18
2022-09-20T20:46:40.956Z,10.17
2022-09-20T20:49:09.302Z,10.11
2022-09-20T20:51:37.771Z,10.13
2022-09-20T20:54:06.506Z,10.15
2022-09-20T20:56:36.263Z,10.17
2022-09-20T20:59:05.980Z,10.16
2022-09-20T21:01:34.758Z,10.13
2022-09-20T21:04:03.730Z,10.08
2022-09-20T21:06:36.136Z,10.06
2022-09-20T21:09:05.940Z,10.03
2022-09-20T21:11:36.495Z,10.02
2022-09-20T21:14:10.661Z,9.98
2022-09-20T21:16:39.786Z,10.00
2022-09-20T21:44:34.548Z,9.90
2022-09-20T21:47:03.261Z,9.89
2022-09-20T21:52:25.469Z,9.88
2022-09-20T21:55:10.430Z,9.91
2022-09-20T21:57:52.868Z,9.95
2022-09-20T22:00:28.738Z,9.96
2022-09-20T22:03:00.146Z,9.98
2022-09-20T22:13:30.407Z,10.05
2022-09-20T22:18:58.406Z,10.07
2022-09-20T22:21:37.798Z,10.06
2022-09-20T22:27:10.299Z,10.00
2022-09-20T22:35:01.298Z,9.99
2022-09-20T22:43:32.998Z,9.98
2022-09-20T22:46:11.556Z,9.95
2022-09-20T23:38:42.172Z,9.42
2022-09-20T23:41:49.902Z,9.37
2022-09-20T23:50:54.034Z,9.32
